Time;durP1;ratioP1;P1;durP2;ratioP2;P2;SDS_P1;SDS_P2;PMS_P1;PMS_P2;Temp;Humidity;BMP_temperature;BMP_pressure;BME280_temperature;BME280_humidity;BME280_pressure;Samples;Min_cycle;Max_cycle;Signal;HPM_P1;HPM_P2
2023/05/26 00:00:09;;;;;;;14.10;5.00;;;13.70;99.90;;;;;;5096166;28;20453;-68
2023/05/26 00:02:36;;;;;;;17.00;5.37;;;13.60;99.90;;;;;;5096627;28;20843;-69
2023/05/26 00:05:04;;;;;;;12.53;5.30;;;13.60;99.90;;;;;;5095959;28;20850;-67
2023/05/26 00:07:31;;;;;;;12.53;4.70;;;13.60;99.90;;;;;;5096229;28;20560;-69
2023/05/26 00:09:57;;;;;;;15.63;5.37;;;13.50;99.90;;;;;;5095830;28;20487;-69
2023/05/26 00:12:24;;;;;;;12.03;5.23;;;13.50;99.90;;;;;;5096081;28;20454;-69
2023/05/26 00:14:51;;;;;;;18.23;5.60;;;13.50;99.90;;;;;;5096297;28;20480;-69
2023/05/26 00:17:20;;;;;;;12.77;4.83;;;13.50;99.90;;;;;;5095824;28;20453;-69
2023/05/26 00:19:49;;;;;;;15.33;7.63;;;13.40;99.90;;;;;;5095549;28;20790;-67
2023/05/26 00:22:16;;;;;;;14.47;5.73;;;13.40;99.90;;;;;;5096027;28;20551;-69
2023/05/26 00:24:43;;;;;;;8.53;4.67;;;13.30;99.90;;;;;;5095372;28;20522;-69
2023/05/26 00:27:10;;;;;;;9.70;5.03;;;13.30;99.90;;;;;;5095826;28;20511;-69
2023/05/26 00:29:37;;;;;;;18.17;5.70;;;13.30;99.90;;;;;;5096239;28;20477;-69
2023/05/26 00:32:04;;;;;;;13.60;5.37;;;13.30;99.90;;;;;;5095760;28;20468;-69
2023/05/26 00:34:33;;;;;;;8.50;4.27;;;13.20;99.90;;;;;;5095352;28;20976;-69
2023/05/26 00:37:00;;;;;;;12.80;5.60;;;13.30;99.90;;;;;;5095550;28;20536;-69
2023/05/26 00:39:27;;;;;;;18.87;5.43;;;13.20;99.90;;;;;;5095341;28;20543;-69
2023/05/26 00:41:54;;;;;;;15.20;6.07;;;13.20;99.90;;;;;;5095326;28;20457;-69
2023/05/26 00:44:21;;;;;;;13.60;5.43;;;13.10;99.90;;;;;;5095144;28;20482;-69
2023/05/26 00:46:48;;;;;;;13.03;5.53;;;13.10;99.90;;;;;;5095145;28;20514;-69
2023/05/26 00:49:15;;;;;;;13.47;5.20;;;13.00;99.90;;;;;;5095302;28;20481;-69
2023/05/26 00:51:45;;;;;;;12.50;5.10;;;13.00;99.90;;;;;;5095426;28;20791;-69
2023/05/26 00:54:13;;;;;;;13.83;5.20;;;13.00;99.90;;;;;;5095169;28;20548;-69
2023/05/26 00:56:41;;;;;;;11.20;6.07;;;12.90;99.90;;;;;;5094991;28;20468;-69
2023/05/26 00:59:11;;;;;;;12.20;6.07;;;12.90;99.90;;;;;;5094247;28;20461;-69
2023/05/26 01:01:38;;;;;;;18.73;6.10;;;12.90;99.90;;;;;;5095209;28;20460;-69
2023/05/26 01:04:05;;;;;;;16.30;5.67;;;13.00;99.90;;;;;;5094776;28;20464;-69
2023/05/26 01:06:32;;;;;;;9.37;5.00;;;12.90;99.90;;;;;;5094898;28;20528;-69
2023/05/26 01:09:01;;;;;;;14.80;6.47;;;12.90;99.90;;;;;;5095323;28;20783;-69
2023/05/26 01:11:33;;;;;;;10.50;4.60;;;12.80;99.90;;;;;;5094819;28;20457;-69
2023/05/26 01:14:06;;;;;;;19.97;6.70;;;12.80;99.90;;;;;;5095229;28;20495;-69
2023/05/26 01:16:39;;;;;;;13.90;6.37;;;12.80;99.90;;;;;;5094820;28;20446;-69
2023/05/26 01:19:36;;;;;;;13.20;5.20;;;12.80;99.90;;;;;;5095003;28;20842;-69
2023/05/26 01:22:16;;;;;;;15.07;5.43;;;12.70;99.90;;;;;;5094803;28;20514;-69
2023/05/26 01:24:56;;;;;;;11.60;5.13;;;12.70;99.90;;;;;;5094844;28;20445;-69
2023/05/26 01:27:32;;;;;;;14.80;5.73;;;12.60;99.90;;;;;;5094900;28;20437;-69
2023/05/26 01:30:01;;;;;;;13.00;5.00;;;12.70;99.90;;;;;;5094429;28;20471;-69
2023/05/26 01:32:28;;;;;;;13.10;5.40;;;12.60;99.90;;;;;;5094519;28;20639;-69
2023/05/26 01:34:55;;;;;;;13.33;5.67;;;12.70;99.90;;;;;;5094541;28;20921;-69
2023/05/26 01:37:21;;;;;;;14.33;6.07;;;12.60;99.90;;;;;;5094617;28;20494;-69
2023/05/26 01:39:48;;;;;;;19.20;5.30;;;12.60;99.90;;;;;;5094637;28;20819;-69
2023/05/26 01:42:21;;;;;;;13.07;5.50;;;12.60;99.90;;;;;;5094470;28;20457;-69
2023/05/26 01:44:55;;;;;;;16.47;6.47;;;12.60;99.90;;;;;;5094912;28;20785;-69
2023/05/26 01:47:26;;;;;;;13.10;5.20;;;12.60;99.90;;;;;;5094439;28;20451;-69
2023/05/26 01:49:53;;;;;;;15.90;5.60;;;12.50;99.90;;;;;;5094780;28;20496;-69
2023/05/26 01:52:21;;;;;;;11.93;5.33;;;12.50;99.90;;;;;;5094663;28;20453;-69
2023/05/26 01:54:50;;;;;;;12.27;5.67;;;12.50;99.90;;;;;;5094524;28;20454;-69
2023/05/26 01:57:18;;;;;;;19.97;6.10;;;12.50;99.90;;;;;;5094458;28;20483;-69
2023/05/26 01:59:45;;;;;;;16.97;5.63;;;12.50;99.90;;;;;;5094435;28;20453;-69
2023/05/26 02:02:11;;;;;;;16.30;6.40;;;12.40;99.90;;;;;;5094510;28;20460;-69
2023/05/26 02:04:40;;;;;;;16.13;6.93;;;12.40;99.90;;;;;;5094186;28;20453;-69
2023/05/26 02:07:07;;;;;;;15.27;6.53;;;12.40;99.90;;;;;;5093989;28;20962;-69
2023/05/26 02:09:35;;;;;;;14.73;7.13;;;12.40;99.90;;;;;;5094379;28;20557;-69
2023/05/26 02:12:02;;;;;;;18.67;6.30;;;12.40;99.90;;;;;;5097402;28;20454;-69
2023/05/26 02:14:29;;;;;;;17.43;6.53;;;12.30;99.90;;;;;;5098865;28;20587;-69
2023/05/26 02:16:56;;;;;;;15.87;6.53;;;12.30;99.90;;;;;;5098249;28;20453;-69
2023/05/26 02:19:25;;;;;;;19.80;6.07;;;12.30;99.90;;;;;;5098008;28;20457;-69
2023/05/26 02:21:53;;;;;;;20.07;6.30;;;12.20;99.90;;;;;;5098189;28;20454;-67
2023/05/26 02:24:21;;;;;;;16.57;6.20;;;12.10;99.90;;;;;;5097983;28;20464;-68
2023/05/26 02:26:48;;;;;;;13.47;6.97;;;12.10;99.90;;;;;;5097849;28;20460;-67
2023/05/26 02:29:15;;;;;;;15.10;8.40;;;12.10;99.90;;;;;;5098264;28;20467;-70
2023/05/26 02:31:42;;;;;;;19.93;7.00;;;12.10;99.90;;;;;;5098070;28;20453;-69
2023/05/26 02:34:10;;;;;;;11.33;6.43;;;12.00;99.90;;;;;;5097881;28;20453;-68
2023/05/26 02:36:37;;;;;;;20.40;7.10;;;12.00;99.90;;;;;;5097391;28;20477;-68
2023/05/26 02:39:05;;;;;;;15.53;6.20;;;12.00;99.90;;;;;;5098058;28;20484;-68
2023/05/26 02:41:32;;;;;;;19.70;7.10;;;12.00;99.90;;;;;;5097787;28;20510;-68
2023/05/26 02:43:59;;;;;;;17.07;7.07;;;11.90;99.90;;;;;;5097913;28;20933;-68
2023/05/26 02:46:26;;;;;;;14.27;7.10;;;11.90;99.90;;;;;;5097569;28;20500;-68
2023/05/26 02:48:52;;;;;;;13.63;6.90;;;11.80;99.90;;;;;;5097255;28;20463;-68
2023/05/26 02:51:19;;;;;;;15.20;7.17;;;11.80;99.90;;;;;;5097730;28;20484;-68
2023/05/26 02:53:46;;;;;;;16.57;8.67;;;11.70;99.90;;;;;;5097366;28;20548;-68
2023/05/26 02:56:15;;;;;;;22.43;7.67;;;11.70;99.90;;;;;;5097410;28;20946;-68
2023/05/26 02:58:42;;;;;;;16.07;6.87;;;11.70;99.90;;;;;;5097215;28;20727;-68
2023/05/26 03:01:09;;;;;;;16.50;6.87;;;11.70;99.90;;;;;;5097078;28;20449;-68
2023/05/26 03:03:36;;;;;;;15.10;7.40;;;11.60;99.90;;;;;;5097509;28;20453;-68
2023/05/26 03:06:04;;;;;;;17.57;6.73;;;11.60;99.90;;;;;;5097105;28;20463;-68
2023/05/26 03:08:31;;;;;;;16.67;7.10;;;11.60;99.90;;;;;;5097094;28;20453;-69
2023/05/26 03:10:58;;;;;;;18.43;6.80;;;11.60;99.90;;;;;;5097279;28;20476;-68
2023/05/26 03:13:26;;;;;;;22.10;6.40;;;11.60;99.90;;;;;;5097131;28;20457;-68
2023/05/26 03:15:54;;;;;;;16.17;8.00;;;11.60;99.90;;;;;;5096992;28;20452;-69
2023/05/26 03:18:21;;;;;;;20.47;7.43;;;11.60;99.90;;;;;;5097182;28;20453;-69
2023/05/26 03:20:48;;;;;;;21.83;7.20;;;11.60;99.90;;;;;;5097032;28;20556;-69
2023/05/26 03:23:19;;;;;;;16.23;7.17;;;11.50;99.90;;;;;;5095791;28;20471;-68
2023/05/26 03:25:46;;;;;;;19.33;7.30;;;11.50;99.90;;;;;;5097093;28;20824;-68
2023/05/26 03:28:12;;;;;;;19.83;7.70;;;11.50;99.90;;;;;;5096886;28;20458;-68
2023/05/26 03:30:41;;;;;;;20.50;7.60;;;11.60;99.90;;;;;;5096649;28;20487;-68
2023/05/26 03:33:07;;;;;;;20.23;7.67;;;11.50;99.90;;;;;;5096929;28;20453;-68
2023/05/26 03:35:35;;;;;;;17.33;6.60;;;11.50;99.90;;;;;;5096503;28;20463;-68
2023/05/26 03:38:02;;;;;;;16.73;6.70;;;11.50;99.90;;;;;;5096652;28;20481;-68
2023/05/26 03:40:29;;;;;;;15.37;6.40;;;11.50;99.90;;;;;;5096623;28;20536;-68
2023/05/26 03:42:55;;;;;;;19.00;7.17;;;11.50;99.90;;;;;;5096649;28;20463;-68
2023/05/26 03:45:22;;;;;;;17.33;6.47;;;11.50;99.90;;;;;;5096678;28;20453;-68
2023/05/26 03:47:50;;;;;;;19.00;7.33;;;11.50;99.90;;;;;;5096292;28;20544;-68
2023/05/26 03:50:17;;;;;;;16.77;7.27;;;11.40;99.90;;;;;;5096344;28;20487;-68
2023/05/26 03:52:44;;;;;;;17.50;7.90;;;11.40;99.90;;;;;;5096651;28;20467;-68
2023/05/26 03:55:11;;;;;;;20.23;7.70;;;11.40;99.90;;;;;;5096423;28;20460;-68
2023/05/26 03:57:38;;;;;;;20.73;7.07;;;11.40;99.90;;;;;;5096681;28;20463;-68
2023/05/26 04:00:07;;;;;;;17.03;8.10;;;11.40;99.90;;;;;;5096097;28;20457;-68
2023/05/26 04:02:35;;;;;;;19.47;7.40;;;11.40;99.90;;;;;;5095894;28;20545;-68
2023/05/26 04:05:03;;;;;;;16.70;7.80;;;11.40;99.90;;;;;;5096268;28;20454;-68
2023/05/26 04:07:30;;;;;;;16.80;7.47;;;11.40;99.90;;;;;;5095906;28;20453;-68
2023/05/26 04:09:57;;;;;;;22.70;9.13;;;11.40;99.90;;;;;;5095863;28;20449;-68
2023/05/26 04:12:24;;;;;;;20.10;7.30;;;11.40;99.90;;;;;;5096141;28;20466;-68
2023/05/26 04:14:51;;;;;;;18.10;7.80;;;11.40;99.90;;;;;;5096112;28;20499;-68
2023/05/26 04:17:18;;;;;;;17.33;7.07;;;11.40;99.90;;;;;;5095919;28;20556;-68
2023/05/26 04:19:44;;;;;;;19.43;7.30;;;11.40;99.90;;;;;;5096119;28;20454;-68
2023/05/26 04:22:13;;;;;;;26.23;7.60;;;11.40;99.90;;;;;;5095537;28;20940;-68
2023/05/26 04:24:39;;;;;;;18.17;6.43;;;11.40;99.90;;;;;;5095907;28;20468;-68
2023/05/26 04:27:07;;;;;;;14.00;7.10;;;11.40;99.90;;;;;;5095849;28;20471;-68
2023/05/26 04:29:34;;;;;;;18.40;6.87;;;11.40;99.90;;;;;;5095788;28;20464;-68
2023/05/26 04:32:01;;;;;;;22.77;7.30;;;11.40;99.90;;;;;;5095581;28;20556;-68
2023/05/26 04:34:28;;;;;;;19.57;8.03;;;11.40;99.90;;;;;;5095453;28;20464;-68
2023/05/26 04:36:55;;;;;;;20.90;6.73;;;11.40;99.90;;;;;;5095459;28;20477;-68
2023/05/26 04:39:23;;;;;;;9.93;6.10;;;11.40;99.90;;;;;;5095210;28;20453;-68
2023/05/26 04:41:50;;;;;;;15.10;5.83;;;11.40;99.90;;;;;;5095313;28;20459;-68
2023/05/26 04:44:18;;;;;;;16.37;5.57;;;11.40;99.90;;;;;;5095227;28;20859;-69
2023/05/26 04:46:45;;;;;;;19.33;7.47;;;11.40;99.90;;;;;;5095133;28;20459;-69
2023/05/26 04:49:13;;;;;;;11.87;5.40;;;11.50;99.90;;;;;;5095316;28;20921;-69
2023/05/26 04:51:40;;;;;;;16.80;6.87;;;11.50;99.90;;;;;;5095377;28;20481;-70
2023/05/26 04:54:06;;;;;;;15.73;5.57;;;11.50;99.90;;;;;;5095516;28;20454;-69
2023/05/26 04:56:35;;;;;;;16.73;5.93;;;11.60;99.90;;;;;;5094932;28;20461;-70
2023/05/26 04:59:02;;;;;;;17.27;6.00;;;11.60;99.90;;;;;;5095344;28;20914;-69
2023/05/26 05:01:32;;;;;;;16.47;5.90;;;11.60;99.90;;;;;;5094911;28;20449;-69
2023/05/26 05:03:59;;;;;;;15.20;5.40;;;11.60;99.90;;;;;;5095563;28;20456;-70
2023/05/26 05:06:26;;;;;;;15.83;5.97;;;11.70;99.90;;;;;;5095078;28;20506;-69
2023/05/26 05:08:53;;;;;;;19.10;7.57;;;11.70;99.90;;;;;;5094716;28;20453;-69
2023/05/26 05:11:19;;;;;;;15.10;5.97;;;11.70;99.90;;;;;;5095040;28;20477;-69
2023/05/26 05:13:48;;;;;;;16.83;5.60;;;11.70;99.90;;;;;;5094715;28;20552;-70
2023/05/26 05:16:14;;;;;;;18.83;5.83;;;11.80;99.90;;;;;;5095230;28;20453;-70
2023/05/26 05:18:41;;;;;;;17.77;5.23;;;11.80;99.90;;;;;;5094616;28;20457;-69
2023/05/26 05:21:08;;;;;;;20.73;5.80;;;11.80;99.90;;;;;;5095062;28;20454;-70
2023/05/26 05:23:35;;;;;;;11.50;5.30;;;11.80;99.90;;;;;;5094917;28;20488;-69
2023/05/26 05:26:02;;;;;;;14.70;5.23;;;11.90;99.90;;;;;;5094435;28;20453;-69
2023/05/26 05:28:29;;;;;;;16.53;5.50;;;11.90;99.90;;;;;;5094943;28;20460;-69
2023/05/26 05:30:57;;;;;;;16.03;5.27;;;12.00;99.90;;;;;;5094144;28;20473;-69
2023/05/26 05:33:24;;;;;;;16.07;6.60;;;12.00;99.90;;;;;;5094743;28;20558;-69
2023/05/26 05:35:51;;;;;;;17.10;5.23;;;12.00;99.90;;;;;;5094360;28;20453;-69
2023/05/26 05:38:18;;;;;;;22.37;6.40;;;12.00;99.90;;;;;;5094142;28;20481;-70
2023/05/26 05:40:45;;;;;;;18.00;7.40;;;12.10;99.90;;;;;;5094801;28;20832;-69
2023/05/26 05:43:12;;;;;;;21.17;6.43;;;12.10;99.90;;;;;;5094357;28;20544;-69
2023/05/26 05:45:38;;;;;;;16.97;6.20;;;12.10;99.90;;;;;;5094181;28;20453;-70
2023/05/26 05:48:07;;;;;;;23.00;5.77;;;12.20;99.90;;;;;;5094570;28;20779;-69
2023/05/26 05:50:33;;;;;;;13.77;5.30;;;12.20;99.90;;;;;;5094533;28;20544;-69
2023/05/26 05:53:00;;;;;;;17.13;6.70;;;12.30;99.90;;;;;;5094178;28;20456;-69
2023/05/26 05:55:27;;;;;;;14.40;5.37;;;12.40;99.90;;;;;;5094544;28;20557;-69
2023/05/26 05:57:54;;;;;;;15.90;6.00;;;12.50;99.90;;;;;;5094439;28;20845;-69
2023/05/26 06:00:21;;;;;;;13.63;5.70;;;12.50;99.90;;;;;;5094094;28;20537;-70
2023/05/26 06:02:48;;;;;;;13.50;5.07;;;12.50;99.90;;;;;;5094162;28;20457;-69
2023/05/26 06:05:16;;;;;;;15.53;5.30;;;12.50;99.90;;;;;;5094233;28;20492;-74
2023/05/26 06:07:43;;;;;;;25.93;5.70;;;12.60;99.90;;;;;;5094265;28;20552;-70
2023/05/26 06:10:10;;;;;;;17.57;6.43;;;12.70;99.90;;;;;;5094384;28;20494;-70
2023/05/26 06:12:37;;;;;;;15.83;4.93;;;12.70;99.90;;;;;;5094332;28;20814;-70
2023/05/26 06:15:04;;;;;;;18.30;5.80;;;12.70;99.90;;;;;;5094107;28;20467;-70
2023/05/26 06:17:31;;;;;;;18.90;5.53;;;12.70;99.90;;;;;;5094615;28;20464;-70
2023/05/26 06:19:58;;;;;;;17.47;4.77;;;12.80;99.90;;;;;;5094183;28;20892;-69
2023/05/26 06:22:26;;;;;;;19.47;5.00;;;12.80;99.90;;;;;;5094312;28;20464;-70
2023/05/26 06:24:53;;;;;;;22.20;6.80;;;12.90;99.90;;;;;;5094440;28;20564;-69
2023/05/26 06:27:20;;;;;;;16.73;5.73;;;12.90;99.90;;;;;;5094046;28;20464;-70
2023/05/26 06:29:47;;;;;;;18.13;6.50;;;13.00;99.90;;;;;;5094377;28;20467;-70
2023/05/26 06:32:14;;;;;;;22.60;5.53;;;13.10;99.90;;;;;;5094389;28;20473;-70
2023/05/26 06:34:40;;;;;;;21.93;5.33;;;13.20;99.90;;;;;;5094469;28;20764;-70
2023/05/26 06:37:07;;;;;;;20.23;5.87;;;13.30;99.90;;;;;;5093874;28;20487;-70
2023/05/26 06:39:36;;;;;;;17.70;5.97;;;13.30;99.90;;;;;;5094235;28;20787;-69
2023/05/26 06:42:02;;;;;;;20.60;6.00;;;13.40;99.90;;;;;;5094215;28;20821;-70
2023/05/26 06:44:29;;;;;;;12.30;5.70;;;13.40;99.90;;;;;;5093847;28;20544;-69
2023/05/26 06:46:56;;;;;;;14.90;5.70;;;13.50;99.90;;;;;;5094185;28;20463;-69
2023/05/26 06:49:23;;;;;;;17.50;5.10;;;13.50;99.90;;;;;;5094094;28;20464;-70
2023/05/26 06:51:50;;;;;;;16.60;5.33;;;13.50;99.90;;;;;;5093765;28;20477;-70
2023/05/26 06:54:17;;;;;;;14.43;4.10;;;13.60;99.90;;;;;;5094644;28;20453;-69
2023/05/26 06:56:45;;;;;;;15.93;5.57;;;13.70;99.90;;;;;;5093823;28;20479;-70
2023/05/26 06:59:12;;;;;;;15.60;4.87;;;13.80;99.90;;;;;;5096987;28;20457;-70
2023/05/26 07:01:39;;;;;;;20.33;6.10;;;13.90;99.90;;;;;;5097818;28;20449;-70
2023/05/26 07:04:06;;;;;;;16.20;5.67;;;13.90;99.90;;;;;;5097628;28;20495;-70
2023/05/26 07:06:33;;;;;;;20.10;5.00;;;14.00;99.90;;;;;;5097548;28;20457;-70
2023/05/26 07:09:00;;;;;;;23.17;5.23;;;14.10;99.90;;;;;;5097593;28;20852;-70
2023/05/26 07:11:27;;;;;;;16.30;6.00;;;14.10;99.90;;;;;;5097321;28;20487;-70
2023/05/26 07:13:56;;;;;;;14.03;4.40;;;14.10;99.90;;;;;;5097544;28;20457;-70
2023/05/26 07:16:23;;;;;;;11.93;4.80;;;14.20;99.90;;;;;;5097379;28;20449;-70
2023/05/26 07:18:49;;;;;;;15.50;4.90;;;14.20;99.90;;;;;;5097380;28;20548;-70
2023/05/26 07:21:18;;;;;;;15.20;3.90;;;14.20;99.90;;;;;;5097270;28;20540;-70
2023/05/26 07:23:44;;;;;;;18.17;5.00;;;14.30;99.90;;;;;;5096886;28;20991;-70
2023/05/26 07:26:11;;;;;;;17.10;4.87;;;14.30;99.90;;;;;;5097160;28;20453;-70
2023/05/26 07:28:38;;;;;;;14.77;4.50;;;14.40;99.90;;;;;;5097006;28;20458;-70
2023/05/26 07:31:06;;;;;;;15.00;4.93;;;14.40;99.90;;;;;;5097132;28;20453;-70
2023/05/26 07:33:33;;;;;;;16.40;4.87;;;14.50;99.90;;;;;;5097194;28;20533;-70
2023/05/26 07:36:00;;;;;;;19.33;7.30;;;14.50;99.90;;;;;;5096823;28;20918;-70
2023/05/26 07:38:27;;;;;;;16.00;5.30;;;14.50;99.90;;;;;;5096764;28;20508;-69
2023/05/26 07:40:55;;;;;;;15.20;4.27;;;14.50;99.90;;;;;;5097106;28;20544;-68
2023/05/26 07:43:22;;;;;;;11.53;3.80;;;14.60;99.90;;;;;;5096534;28;20467;-68
2023/05/26 07:45:49;;;;;;;16.70;4.17;;;14.70;99.90;;;;;;5096634;28;20467;-68
2023/05/26 07:48:17;;;;;;;17.30;4.10;;;14.70;99.90;;;;;;5096857;28;20731;-70
2023/05/26 07:50:44;;;;;;;18.53;5.37;;;14.70;99.90;;;;;;5096307;28;20532;-69
2023/05/26 07:53:11;;;;;;;17.90;4.90;;;14.80;99.90;;;;;;5096664;28;20805;-69
2023/05/26 07:55:38;;;;;;;13.07;4.60;;;14.90;99.90;;;;;;5096315;28;20464;-70
2023/05/26 07:58:05;;;;;;;18.97;4.90;;;15.00;99.90;;;;;;5096302;28;20457;-68
2023/05/26 08:00:32;;;;;;;15.00;4.97;;;15.00;99.90;;;;;;5096722;28;20457;-68
2023/05/26 08:02:58;;;;;;;19.97;4.87;;;15.00;99.90;;;;;;5096386;28;20463;-68
2023/05/26 08:05:27;;;;;;;14.77;3.90;;;15.10;99.90;;;;;;5096396;28;20666;-68
2023/05/26 08:07:53;;;;;;;15.70;5.47;;;15.10;99.90;;;;;;5096493;28;20457;-68
2023/05/26 08:10:20;;;;;;;16.60;4.67;;;15.20;99.90;;;;;;5095964;28;20457;-68
2023/05/26 08:12:47;;;;;;;17.40;4.63;;;15.30;99.90;;;;;;5095830;28;20556;-68
2023/05/26 08:15:16;;;;;;;24.57;4.70;;;15.40;99.90;;;;;;5096082;28;20536;-69
2023/05/26 08:17:43;;;;;;;19.00;5.03;;;15.40;99.90;;;;;;5095960;28;20461;-68
2023/05/26 08:20:11;;;;;;;20.20;4.33;;;15.50;99.90;;;;;;5096187;28;20544;-68
2023/05/26 08:22:39;;;;;;;11.47;4.03;;;15.40;99.90;;;;;;5095860;28;20450;-69
2023/05/26 08:25:06;;;;;;;14.77;4.10;;;15.50;99.90;;;;;;5096022;28;20453;-68
2023/05/26 08:27:33;;;;;;;21.53;5.50;;;15.50;99.90;;;;;;5095843;28;20457;-67
2023/05/26 08:30:00;;;;;;;13.70;4.90;;;15.60;99.90;;;;;;5095819;28;20794;-70
2023/05/26 08:32:27;;;;;;;18.10;4.83;;;15.70;99.90;;;;;;5095319;28;20950;-67
2023/05/26 08:34:54;;;;;;;17.47;3.83;;;15.70;99.90;;;;;;5095852;28;20453;-68
2023/05/26 08:37:21;;;;;;;16.87;4.70;;;15.80;99.90;;;;;;5095543;28;20548;-67
2023/05/26 08:39:49;;;;;;;21.83;5.70;;;15.80;99.90;;;;;;5095672;28;20526;-66
2023/05/26 08:42:20;;;;;;;15.43;4.60;;;15.90;99.90;;;;;;5095495;28;20457;-67
2023/05/26 08:44:47;;;;;;;12.90;5.30;;;15.90;99.90;;;;;;5095404;28;20468;-69
2023/05/26 08:47:14;;;;;;;11.77;3.80;;;15.90;99.90;;;;;;5095213;28;21013;-69
2023/05/26 08:49:47;;;;;;;14.90;4.20;;;16.00;99.90;;;;;;5095249;28;20871;-67
2023/05/26 08:52:16;;;;;;;13.50;4.27;;;16.00;99.90;;;;;;5095346;28;20999;-68
2023/05/26 08:54:45;;;;;;;15.30;4.20;;;16.00;99.90;;;;;;5095417;28;20553;-69
2023/05/26 08:57:14;;;;;;;16.80;4.00;;;16.10;99.90;;;;;;5095068;28;20518;-68
2023/05/26 08:59:42;;;;;;;8.20;3.30;;;16.20;99.90;;;;;;5095131;28;20778;-68
2023/05/26 09:02:10;;;;;;;13.13;5.60;;;16.20;99.90;;;;;;5095301;28;20450;-68
2023/05/26 09:04:37;;;;;;;12.43;5.03;;;16.30;99.90;;;;;;5095502;28;20467;-68
2023/05/26 09:07:06;;;;;;;11.67;4.13;;;16.30;99.90;;;;;;5095239;28;20453;-68
2023/05/26 09:09:33;;;;;;;19.33;4.57;;;16.30;99.90;;;;;;5094802;28;20457;-68
2023/05/26 09:12:00;;;;;;;16.33;3.77;;;16.20;99.90;;;;;;5095043;28;20580;-68
2023/05/26 09:14:28;;;;;;;9.33;4.50;;;16.10;99.90;;;;;;5095484;28;20454;-68
2023/05/26 09:16:59;;;;;;;18.80;4.80;;;16.20;99.90;;;;;;5094964;28;20461;-68
2023/05/26 09:19:27;;;;;;;14.27;4.40;;;16.20;99.90;;;;;;5095006;28;20442;-68
2023/05/26 09:21:55;;;;;;;13.30;4.10;;;16.20;99.90;;;;;;5094606;28;20759;-68
2023/05/26 09:24:24;;;;;;;12.50;3.60;;;16.20;99.90;;;;;;5094790;28;20467;-68
2023/05/26 09:26:51;;;;;;;13.87;3.80;;;16.00;99.90;;;;;;5095036;28;20944;-69
2023/05/26 09:29:18;;;;;;;13.80;3.50;;;16.10;99.90;;;;;;5094518;28;20518;-69
2023/05/26 09:31:48;;;;;;;18.90;4.47;;;16.20;99.90;;;;;;5094835;28;22423;-68
2023/05/26 09:34:17;;;;;;;13.20;3.50;;;16.30;99.90;;;;;;5094908;28;20467;-68
2023/05/26 09:36:44;;;;;;;10.40;3.10;;;16.40;99.90;;;;;;5094877;28;20549;-68
2023/05/26 09:39:12;;;;;;;8.80;3.43;;;16.50;99.90;;;;;;5094887;28;20453;-68
2023/05/26 09:41:41;;;;;;;10.80;3.80;;;16.50;99.90;;;;;;5094388;28;20473;-68
2023/05/26 09:44:09;;;;;;;10.90;3.77;;;16.60;99.90;;;;;;5094273;28;20457;-68
2023/05/26 09:46:37;;;;;;;9.80;4.57;;;16.70;99.90;;;;;;5094401;28;20453;-68
2023/05/26 09:49:08;;;;;;;11.50;2.77;;;16.70;99.90;;;;;;5094965;28;20500;-68
2023/05/26 09:51:36;;;;;;;10.53;3.30;;;16.80;99.90;;;;;;5094397;28;20452;-68
2023/05/26 09:54:03;;;;;;;8.83;2.93;;;16.80;99.90;;;;;;5094918;28;20807;-68
2023/05/26 09:56:33;;;;;;;8.97;3.47;;;16.80;99.90;;;;;;5094439;28;20464;-68
2023/05/26 09:59:04;;;;;;;14.10;3.40;;;16.90;99.90;;;;;;5094541;28;20544;-68
2023/05/26 10:01:32;;;;;;;11.53;3.67;;;16.90;99.90;;;;;;5094261;28;20449;-68
2023/05/26 10:04:00;;;;;;;11.80;3.27;;;17.00;99.90;;;;;;5094506;28;20463;-68
2023/05/26 10:06:29;;;;;;;18.30;4.90;;;17.10;99.90;;;;;;5093972;28;20507;-68
2023/05/26 10:08:58;;;;;;;12.53;3.27;;;17.00;99.90;;;;;;5094033;28;20837;-68
2023/05/26 10:11:28;;;;;;;11.83;3.77;;;17.10;99.90;;;;;;5094023;28;20445;-68
2023/05/26 10:13:56;;;;;;;14.10;3.90;;;17.20;99.90;;;;;;5093881;28;20491;-69
2023/05/26 10:16:23;;;;;;;13.60;3.50;;;17.20;99.90;;;;;;5094158;28;20556;-68
2023/05/26 10:18:50;;;;;;;10.33;3.60;;;17.40;99.90;;;;;;5094005;28;20849;-68
2023/05/26 10:21:22;;;;;;;12.73;3.60;;;17.40;99.90;;;;;;5094450;28;20453;-69
2023/05/26 10:23:59;;;;;;;9.57;3.80;;;17.50;99.90;;;;;;5094264;28;20438;-68
2023/05/26 10:26:34;;;;;;;15.27;3.80;;;17.40;99.90;;;;;;5094536;28;20517;-68
2023/05/26 10:29:06;;;;;;;17.53;3.83;;;17.40;99.90;;;;;;5094238;28;20445;-68
2023/05/26 10:31:36;;;;;;;9.23;3.27;;;17.50;99.90;;;;;;5094985;28;20452;-68
2023/05/26 10:34:12;;;;;;;9.97;3.77;;;17.60;99.90;;;;;;5097969;28;20928;-69
2023/05/26 10:36:39;;;;;;;14.00;3.40;;;17.70;99.90;;;;;;5097652;28;20568;-68
2023/05/26 10:39:12;;;;;;;14.90;3.80;;;17.90;99.90;;;;;;5098318;28;20848;-68
2023/05/26 10:41:40;;;;;;;8.53;3.50;;;17.90;99.40;;;;;;5098033;28;20496;-68
2023/05/26 10:44:40;;;;;;;11.97;3.63;;;17.90;99.90;;;;;;5097806;28;20481;-68
2023/05/26 10:47:07;;;;;;;10.60;3.50;;;18.00;99.90;;;;;;5097915;28;20816;-70
2023/05/26 10:49:36;;;;;;;8.87;3.07;;;18.00;98.70;;;;;;5097851;28;20841;-69
2023/05/26 10:52:12;;;;;;;13.77;4.00;;;18.10;98.10;;;;;;5097356;28;20941;-69
2023/05/26 10:54:42;;;;;;;13.93;4.07;;;18.20;98.10;;;;;;5098046;28;20819;-69
2023/05/26 10:57:28;;;;;;;16.90;4.13;;;18.30;96.90;;;;;;5097957;28;20513;-69
2023/05/26 10:59:55;;;;;;;10.40;4.00;;;18.40;96.30;;;;;;5097398;28;20441;-69
2023/05/26 11:02:23;;;;;;;9.33;3.37;;;18.20;94.40;;;;;;5097707;28;20790;-68
2023/05/26 11:04:51;;;;;;;10.77;3.67;;;18.00;94.60;;;;;;5097575;28;20453;-69
2023/05/26 11:07:22;;;;;;;8.63;4.40;;;18.00;94.90;;;;;;5097271;28;20450;-68
2023/05/26 11:09:58;;;;;;;7.17;2.93;;;18.10;94.50;;;;;;5097294;28;20463;-68
2023/05/26 11:12:25;;;;;;;9.37;3.60;;;18.30;91.10;;;;;;5097711;28;20526;-67
2023/05/26 11:14:52;;;;;;;10.70;3.57;;;18.60;87.70;;;;;;5097653;28;20457;-67
2023/05/26 11:17:20;;;;;;;7.97;2.80;;;19.10;85.10;;;;;;5097416;28;20821;-67
2023/05/26 11:19:55;;;;;;;7.33;3.10;;;19.70;73.20;;;;;;5097234;28;20777;-68
2023/05/26 11:22:22;;;;;;;9.33;3.67;;;20.60;62.80;;;;;;5097151;28;20878;-67
2023/05/26 11:24:51;;;;;;;8.97;2.87;;;21.70;55.10;;;;;;5097211;28;20471;-68
2023/05/26 11:27:19;;;;;;;7.57;2.70;;;22.60;48.70;;;;;;5097102;28;20457;-68
2023/05/26 11:29:49;;;;;;;6.80;2.90;;;23.50;37.70;;;;;;5097489;28;20544;-68
2023/05/26 11:32:16;;;;;;;8.83;2.73;;;24.30;31.60;;;;;;5096793;28;20759;-68
2023/05/26 11:34:42;;;;;;;6.10;2.60;;;24.90;26.90;;;;;;5096657;28;20463;-68
2023/05/26 11:37:10;;;;;;;6.30;2.67;;;25.50;1.00;;;;;;5096525;28;20481;-68
2023/05/26 11:39:38;;;;;;;6.10;2.57;;;26.10;1.00;;;;;;5096608;28;20485;-68
2023/05/26 11:42:10;;;;;;;5.90;3.20;;;26.60;1.00;;;;;;5096863;28;20468;-69
2023/05/26 11:44:39;;;;;;;6.77;2.77;;;26.90;1.00;;;;;;5095354;28;20784;-69
2023/05/26 11:47:06;;;;;;;4.93;2.43;;;26.90;1.00;;;;;;5095776;28;20547;-69
2023/05/26 11:49:33;;;;;;;8.57;2.50;;;27.00;1.00;;;;;;5096331;28;20468;-69
2023/05/26 11:52:00;;;;;;;5.67;2.70;;;27.10;1.00;;;;;;5096555;28;20526;-69
2023/05/26 11:54:27;;;;;;;5.43;2.80;;;27.00;1.00;;;;;;5096422;28;20481;-69
2023/05/26 11:56:54;;;;;;;4.00;2.50;;;27.10;1.00;;;;;;5096692;28;20459;-69
2023/05/26 11:59:22;;;;;;;8.87;3.13;;;27.20;1.00;;;;;;5096631;28;20453;-69
2023/05/26 12:01:50;;;;;;;9.73;3.10;;;27.30;1.00;;;;;;5096277;28;20454;-69
2023/05/26 12:04:27;;;;;;;7.83;3.07;;;27.80;1.00;;;;;;5095981;28;20453;-69
2023/05/26 12:06:55;;;;;;;6.87;3.10;;;28.30;1.00;;;;;;5096097;28;20448;-69
2023/05/26 12:09:23;;;;;;;5.07;2.60;;;28.80;1.00;;;;;;5096144;28;20457;-69
2023/05/26 12:11:52;;;;;;;7.37;2.97;;;29.10;1.00;;;;;;5096099;28;20464;-69
2023/05/26 12:14:21;;;;;;;7.10;3.03;;;29.40;1.00;;;;;;5095533;28;20477;-69
2023/05/26 12:16:52;;;;;;;8.03;2.40;;;29.40;1.00;;;;;;5095558;28;20484;-69
2023/05/26 12:19:21;;;;;;;6.43;2.60;;;29.50;1.00;;;;;;5095929;28;20878;-69
2023/05/26 12:21:49;;;;;;;5.77;2.43;;;29.40;1.00;;;;;;5095797;28;20464;-69
2023/05/26 12:24:29;;;;;;;5.33;3.33;;;29.30;1.00;;;;;;5096091;28;20766;-69
2023/05/26 12:26:56;;;;;;;8.60;3.60;;;29.20;1.00;;;;;;5095842;28;20535;-69
2023/05/26 12:29:23;;;;;;;6.20;2.60;;;29.40;1.00;;;;;;5095692;28;20790;-69
2023/05/26 12:31:53;;;;;;;4.80;2.50;;;29.50;1.00;;;;;;5095713;28;20541;-68
2023/05/26 12:34:21;;;;;;;7.10;2.47;;;29.70;1.00;;;;;;5095222;28;20481;-68
2023/05/26 12:36:48;;;;;;;6.33;2.93;;;29.80;1.00;;;;;;5095360;28;20790;-68
2023/05/26 12:39:16;;;;;;;12.13;3.60;;;29.90;1.00;;;;;;5095350;28;20448;-68
2023/05/26 12:41:45;;;;;;;6.13;2.70;;;29.80;1.00;;;;;;5095287;28;20500;-69
2023/05/26 12:44:12;;;;;;;8.50;2.70;;;29.80;1.00;;;;;;5095617;28;20941;-69